Wetterstation Vordersexau
Wetterdaten: Woche 20.11.17 - 26.11.17 (KW47)
Datum Zeit Temp. A. Feuchte A. Luftdruck Regen Wind Richtung Taupunkt Windchill Windben
20.11.2017 00:00 -1,1 C 85 % 1022,6 hPa 0,0 l/m 0,0 km/h W-NW -3,3 C -1,1 C 0,0 km/h
20.11.2017 01:00 -0,6 C 85 % 1022,2 hPa 0,0 l/m 0,0 km/h W-NW -2,8 C -0,6 C 0,0 km/h
20.11.2017 02:00 -1,6 C 85 % 1021,8 hPa 0,0 l/m 0,0 km/h S-SW -3,8 C -1,6 C 0,0 km/h
20.11.2017 03:00 -1,6 C 85 % 1021,4 hPa 0,0 l/m 0,0 km/h SO -3,8 C -1,6 C 0,0 km/h
20.11.2017 04:00 -0,7 C 83 % 1021,5 hPa 0,0 l/m 0,0 km/h SO -3,2 C -0,7 C 0,0 km/h
20.11.2017 05:00 0,1 C 83 % 1021,5 hPa 0,0 l/m 0,0 km/h SO -2,4 C 0,1 C 0,0 km/h
20.11.2017 06:00 -0,4 C 82 % 1021,5 hPa 0,0 l/m 0,0 km/h SO -3,1 C -0,4 C 0,0 km/h
20.11.2017 07:00 -0,6 C 82 % 1021,7 hPa 0,0 l/m 0,0 km/h SO -3,3 C -0,6 C 0,0 km/h
20.11.2017 08:00 -0,1 C 81 % 1021,6 hPa 0,0 l/m 0,0 km/h SO -3,0 C -0,1 C 0,0 km/h
20.11.2017 09:00 1,0 C 80 % 1021,6 hPa 0,0 l/m 0,0 km/h SO -2,1 C 1,0 C 0,0 km/h
20.11.2017 10:00 5,4 C 79 % 1021,7 hPa 0,0 l/m 0,0 km/h N 2,1 C 5,4 C 0,0 km/h
20.11.2017 11:00 5,4 C 85 % 1021,8 hPa 0,0 l/m 0,0 km/h S 3,1 C 5,4 C 0,0 km/h
20.11.2017 12:00 5,2 C 85 % 1020,3 hPa 0,0 l/m 0,0 km/h W 2,9 C 5,2 C 0,0 km/h
20.11.2017 13:00 5,8 C 81 % 1019,5 hPa 0,0 l/m 0,0 km/h S-SW 2,8 C 5,8 C 0,0 km/h
20.11.2017 14:00 5,3 C 82 % 1019,7 hPa 0,0 l/m 21,4 km/h W-SW 2,5 C -3,3 C 11,9 km/h
20.11.2017 15:00 5,3 C 82 % 1019,1 hPa 0,0 l/m 0,0 km/h W-SW 2,5 C 5,3 C 0,0 km/h
20.11.2017 16:00 5,4 C 80 % 1018,6 hPa 0,0 l/m 20,1 km/h SW 2,2 C -2,7 C 11,2 km/h
20.11.2017 17:00 5,8 C 79 % 1018,5 hPa 0,0 l/m 22,0 km/h S 2,4 C -2,9 C 12,2 km/h
20.11.2017 18:00 6,2 C 80 % 1018,1 hPa 0,0 l/m 0,6 km/h W-SW 3,0 C 6,2 C 0,4 km/h
20.11.2017 19:00 5,9 C 82 % 1017,9 hPa 0,0 l/m 21,4 km/h S-SW 3,1 C -2,5 C 11,9 km/h
20.11.2017 20:00 6,3 C 80 % 1017,8 hPa 0,0 l/m 11,7 km/h W-SW 3,1 C 2,4 C 6,5 km/h
20.11.2017 21:00 6,6 C 79 % 1017,1 hPa 0,0 l/m 15,6 km/h SW 3,2 C 0,7 C 8,6 km/h
20.11.2017 22:00 7,2 C 78 % 1017,0 hPa 0,0 l/m 17,5 km/h SW 3,6 C 0,6 C 9,7 km/h
20.11.2017 23:00 5,8 C 83 % 1017,3 hPa 1,0 l/m 0,0 km/h N-NO 3,1 C 5,8 C 0,0 km/h
21.11.2017 00:00 5,9 C 84 % 1017,7 hPa 0,0 l/m 0,0 km/h N-NO 3,4 C 5,9 C 0,0 km/h
21.11.2017 01:00 5,3 C 85 % 1017,1 hPa 2,1 l/m 0,0 km/h W-NW 3,0 C 5,3 C 0,0 km/h
21.11.2017 02:00 5,0 C 85 % 1017,1 hPa 0,0 l/m 0,0 km/h NW 2,7 C 5,0 C 0,0 km/h
21.11.2017 03:00 5,3 C 84 % 1017,1 hPa 0,5 l/m 0,0 km/h S-SO 2,8 C 5,3 C 0,0 km/h
21.11.2017 04:00 6,0 C 82 % 1017,1 hPa 0,0 l/m 0,0 km/h S 3,2 C 6,0 C 0,0 km/h
21.11.2017 05:00 6,2 C 80 % 1017,1 hPa 1,0 l/m 9,7 km/h SW 3,0 C 3,6 C 5,4 km/h
21.11.2017 06:00 6,4 C 81 % 1016,6 hPa 0,0 l/m 0,0 km/h S-SW 3,4 C 6,4 C 0,0 km/h
21.11.2017 07:00 6,9 C 83 % 1016,6 hPa 0,0 l/m 0,0 km/h W 4,2 C 6,9 C 0,0 km/h
21.11.2017 08:00 6,6 C 85 % 1017,1 hPa 0,5 l/m 0,0 km/h N-NW 4,3 C 6,6 C 0,0 km/h
21.11.2017 09:00 7,1 C 85 % 1017,0 hPa 0,0 l/m 0,0 km/h N 4,8 C 7,1 C 0,0 km/h
21.11.2017 10:00 10,1 C 85 % 1016,9 hPa 0,0 l/m 0,0 km/h S-SO 7,7 C 10,1 C 0,0 km/h
21.11.2017 11:00 14,7 C 76 % 1016,1 hPa 0,0 l/m 0,0 km/h W 10,5 C 14,7 C 0,0 km/h
21.11.2017 12:00 15,4 C 62 % 1015,5 hPa 0,0 l/m 22,7 km/h W-SW 8,2 C 9,6 C 12,6 km/h
21.11.2017 13:00 15,6 C 57 % 1014,6 hPa 0,0 l/m 21,4 km/h SW 7,1 C 10,2 C 11,9 km/h
21.11.2017 14:00 13,6 C 62 % 1014,7 hPa 0,0 l/m 20,1 km/h SW 6,5 C 7,9 C 11,2 km/h
21.11.2017 15:00 13,6 C 63 % 1014,5 hPa 0,0 l/m 0,0 km/h S-SW 6,7 C 13,6 C 0,0 km/h
21.11.2017 16:00 11,9 C 64 % 1014,6 hPa 0,0 l/m 21,4 km/h S-SW 5,3 C 5,3 C 11,9 km/h
21.11.2017 17:00 11,1 C 68 % 1014,4 hPa 0,0 l/m 9,7 km/h SW 5,4 C 9,0 C 5,4 km/h
21.11.2017 18:00 10,4 C 69 % 1014,3 hPa 0,0 l/m 0,0 km/h S-SO 5,0 C 10,4 C 0,0 km/h
21.11.2017 19:00 10,3 C 70 % 1014,0 hPa 0,0 l/m 0,0 km/h N-NO 5,1 C 10,3 C 0,0 km/h
21.11.2017 20:00 6,5 C 80 % 1014,3 hPa 0,0 l/m 0,0 km/h N-NO 3,3 C 6,5 C 0,0 km/h
21.11.2017 21:00 5,5 C 84 % 1013,9 hPa 0,0 l/m 0,0 km/h N-NO 3,0 C 5,5 C 0,0 km/h
21.11.2017 22:00 4,7 C 85 % 1013,8 hPa 0,0 l/m 0,0 km/h N-NO 2,4 C 4,7 C 0,0 km/h
21.11.2017 23:00 4,6 C 85 % 1013,6 hPa 0,0 l/m 0,0 km/h O 2,3 C 4,6 C 0,0 km/h
22.11.2017 00:00 4,2 C 85 % 1013,3 hPa 0,0 l/m 0,0 km/h N-NO 1,9 C 4,2 C 0,0 km/h
22.11.2017 01:00 4,2 C 84 % 1012,9 hPa 0,0 l/m 0,0 km/h O-SO 1,7 C 4,2 C 0,0 km/h
22.11.2017 02:00 3,9 C 84 % 1012,8 hPa 0,0 l/m 0,0 km/h O-NO 1,4 C 3,9 C 0,0 km/h
22.11.2017 03:00 3,3 C 83 % 1012,5 hPa 0,0 l/m 0,0 km/h N-NO 0,7 C 3,3 C 0,0 km/h
22.11.2017 04:00 4,1 C 81 % 1012,3 hPa 0,0 l/m 1,9 km/h N 1,1 C 4,1 C 1,1 km/h
22.11.2017 05:00 3,7 C 83 % 1012,3 hPa 0,0 l/m 0,0 km/h O 1,1 C 3,7 C 0,0 km/h
22.11.2017 06:00 2,9 C 82 % 1011,9 hPa 0,0 l/m 0,0 km/h O 0,1 C 2,9 C 0,0 km/h
22.11.2017 07:00 2,7 C 81 % 1011,9 hPa 0,0 l/m 0,0 km/h O-SO -0,2 C 2,7 C 0,0 km/h
22.11.2017 08:00 5,9 C 76 % 1011,9 hPa 0,0 l/m 0,0 km/h O-SO 2,0 C 5,9 C 0,0 km/h
22.11.2017 09:00 12,1 C 78 % 1011,8 hPa 0,0 l/m 0,0 km/h SO 8,4 C 12,1 C 0,0 km/h
22.11.2017 10:00 18,2 C 67 % 1011,8 hPa 0,0 l/m 0,0 km/h W 12,0 C 18,2 C 0,0 km/h
22.11.2017 11:00 18,8 C 50 % 1011,1 hPa 0,0 l/m 7,1 km/h W-SW 8,2 C 18,5 C 4,0 km/h
22.11.2017 12:00 19,1 C 44 % 1010,5 hPa 0,0 l/m 26,6 km/h W-SW 6,6 C 13,9 C 14,8 km/h
22.11.2017 13:00 20,2 C 41 % 1009,9 hPa 0,0 l/m 13,0 km/h W 6,5 C 18,0 C 7,2 km/h
22.11.2017 14:00 21,8 C 38 % 1009,1 hPa 0,0 l/m 0,0 km/h W-NW 6,8 C 21,8 C 0,0 km/h
22.11.2017 15:00 22,6 C 37 % 1008,9 hPa 0,0 l/m 0,0 km/h N 7,2 C 22,6 C 0,0 km/h
22.11.2017 16:00 11,9 C 57 % 1008,8 hPa 0,0 l/m 0,0 km/h SO 3,7 C 11,9 C 0,0 km/h
22.11.2017 17:00 8,2 C 71 % 1008,8 hPa 0,0 l/m 0,0 km/h O-SO 3,3 C 8,2 C 0,0 km/h
22.11.2017 18:00 7,0 C 76 % 1008,5 hPa 0,0 l/m 0,0 km/h O-SO 3,1 C 7,0 C 0,0 km/h
22.11.2017 19:00 5,9 C 78 % 1008,1 hPa 0,0 l/m 0,0 km/h O-SO 2,4 C 5,9 C 0,0 km/h
22.11.2017 20:00 5,2 C 80 % 1008,0 hPa 0,0 l/m 0,0 km/h O-NO 2,0 C 5,2 C 0,0 km/h
22.11.2017 21:00 3,4 C 82 % 1007,7 hPa 0,0 l/m 0,0 km/h NO 0,6 C 3,4 C 0,0 km/h
22.11.2017 22:00 2,6 C 83 % 1007,7 hPa 0,0 l/m 0,0 km/h O-NO 0,0 C 2,6 C 0,0 km/h
22.11.2017 23:00 1,9 C 84 % 1007,6 hPa 0,0 l/m 0,0 km/h O-NO -0,5 C 1,9 C 0,0 km/h
23.11.2017 00:00 2,1 C 85 % 1007,5 hPa 0,0 l/m 0,0 km/h O-NO -0,2 C 2,1 C 0,0 km/h
23.11.2017 01:00 2,6 C 85 % 1007,8 hPa 0,0 l/m 0,0 km/h O-SO 0,3 C 2,6 C 0,0 km/h
23.11.2017 02:00 2,3 C 85 % 1008,3 hPa 0,0 l/m 0,0 km/h O-NO 0,0 C 2,3 C 0,0 km/h
23.11.2017 03:00 2,4 C 85 % 1008,0 hPa 0,0 l/m 0,0 km/h O-SO 0,1 C 2,4 C 0,0 km/h
23.11.2017 04:00 1,9 C 85 % 1008,1 hPa 0,0 l/m 0,0 km/h O-SO -0,3 C 1,9 C 0,0 km/h
23.11.2017 05:00 2,4 C 85 % 1008,2 hPa 0,0 l/m 0,0 km/h O-SO 0,1 C 2,4 C 0,0 km/h
23.11.2017 06:00 2,3 C 85 % 1008,0 hPa 0,0 l/m 0,0 km/h O-SO 0,0 C 2,3 C 0,0 km/h
23.11.2017 07:00 2,3 C 85 % 1008,1 hPa 0,0 l/m 0,0 km/h O-SO 0,0 C 2,3 C 0,0 km/h
23.11.2017 08:00 6,6 C 85 % 1008,4 hPa 0,0 l/m 0,0 km/h SO 4,3 C 6,6 C 0,0 km/h
23.11.2017 09:00 7,3 C 82 % 1009,3 hPa 0,0 l/m 0,0 km/h SO 4,4 C 7,3 C 0,0 km/h
23.11.2017 10:00 11,9 C 78 % 1009,7 hPa 0,0 l/m 0,0 km/h N-NO 8,2 C 11,9 C 0,0 km/h
23.11.2017 11:00 16,9 C 63 % 1009,8 hPa 0,0 l/m 0,0 km/h O-NO 9,8 C 16,9 C 0,0 km/h
23.11.2017 12:00 15,8 C 59 % 1009,9 hPa 0,0 l/m 0,0 km/h S 7,8 C 15,8 C 0,0 km/h
23.11.2017 13:00 15,3 C 58 % 1010,0 hPa 0,0 l/m 0,0 km/h S-SO 7,1 C 15,3 C 0,0 km/h
23.11.2017 14:00 16,4 C 53 % 1010,2 hPa 0,0 l/m 0,0 km/h S 6,8 C 16,4 C 0,0 km/h
23.11.2017 15:00 16,3 C 55 % 1010,6 hPa 0,0 l/m 1,9 km/h W-SW 7,2 C 16,3 C 1,1 km/h
23.11.2017 16:00 15,2 C 55 % 1010,7 hPa 0,0 l/m 8,4 km/h W-SW 6,2 C 14,1 C 4,7 km/h
23.11.2017 17:00 15,1 C 56 % 1010,8 hPa 0,0 l/m 4,5 km/h S 6,4 C 15,1 C 2,5 km/h
23.11.2017 18:00 12,3 C 61 % 1011,1 hPa 0,0 l/m 0,0 km/h SW 5,0 C 12,3 C 0,0 km/h
23.11.2017 19:00 12,0 C 64 % 1011,5 hPa 0,0 l/m 0,0 km/h O-NO 5,4 C 12,0 C 0,0 km/h
23.11.2017 20:00 10,9 C 65 % 1012,0 hPa 0,0 l/m 0,0 km/h S-SO 4,6 C 10,9 C 0,0 km/h
23.11.2017 21:00 7,6 C 73 % 1012,3 hPa 0,0 l/m 0,0 km/h NO 3,1 C 7,6 C 0,0 km/h
23.11.2017 22:00 7,5 C 79 % 1012,4 hPa 0,0 l/m 0,0 km/h S 4,1 C 7,5 C 0,0 km/h
23.11.2017 23:00 12,1 C 70 % 1012,4 hPa 0,0 l/m 1,9 km/h S-SO 6,8 C 12,1 C 1,1 km/h
24.11.2017 00:00 11,9 C 67 % 1012,4 hPa 0,0 l/m 0,0 km/h S-SO 6,0 C 11,9 C 0,0 km/h
24.11.2017 01:00 11,9 C 67 % 1012,1 hPa 0,0 l/m 0,0 km/h O-SO 6,0 C 11,9 C 0,0 km/h
24.11.2017 02:00 10,9 C 68 % 1012,2 hPa 0,0 l/m 0,0 km/h O 5,2 C 10,9 C 0,0 km/h
24.11.2017 03:00 8,4 C 77 % 1011,6 hPa 0,0 l/m 0,0 km/h N-NO 4,6 C 8,4 C 0,0 km/h
24.11.2017 04:00 7,6 C 81 % 1011,0 hPa 0,0 l/m 0,0 km/h O-SO 4,6 C 7,6 C 0,0 km/h
24.11.2017 05:00 6,7 C 82 % 1010,7 hPa 0,0 l/m 0,0 km/h O-SO 3,8 C 6,7 C 0,0 km/h
24.11.2017 06:00 5,7 C 83 % 1010,9 hPa 0,0 l/m 0,0 km/h O-NO 3,0 C 5,7 C 0,0 km/h
24.11.2017 07:00 7,2 C 84 % 1011,7 hPa 0,0 l/m 0,0 km/h O-NO 4,7 C 7,2 C 0,0 km/h
24.11.2017 08:00 9,5 C 81 % 1011,1 hPa 0,0 l/m 0,0 km/h O-NO 6,4 C 9,5 C 0,0 km/h
24.11.2017 09:00 13,9 C 76 % 1011,2 hPa 0,0 l/m 0,0 km/h SW 9,7 C 13,9 C 0,0 km/h
24.11.2017 10:00 17,9 C 58 % 1011,1 hPa 0,0 l/m 0,0 km/h W-SW 9,5 C 17,9 C 0,0 km/h
24.11.2017 11:00 19,1 C 52 % 1010,8 hPa 0,0 l/m 0,0 km/h W 9,0 C 19,1 C 0,0 km/h
24.11.2017 12:00 15,6 C 60 % 1011,6 hPa 0,0 l/m 0,0 km/h W-SW 7,9 C 15,6 C 0,0 km/h
24.11.2017 13:00 15,2 C 61 % 1011,9 hPa 0,0 l/m 5,2 km/h W 7,7 C 15,2 C 2,9 km/h
24.11.2017 14:00 13,4 C 70 % 1012,3 hPa 0,0 l/m 18,8 km/h SO 8,0 C 8,0 C 10,4 km/h
24.11.2017 15:00 12,3 C 77 % 1011,9 hPa 0,0 l/m 0,0 km/h N-NO 8,4 C 12,3 C 0,0 km/h
24.11.2017 16:00 11,1 C 80 % 1011,9 hPa 0,0 l/m 0,0 km/h N-NO 7,8 C 11,1 C 0,0 km/h
24.11.2017 17:00 10,3 C 83 % 1012,0 hPa 0,5 l/m 0,0 km/h S 7,5 C 10,3 C 0,0 km/h
24.11.2017 18:00 10,2 C 84 % 1012,2 hPa 2,6 l/m 1,3 km/h S 7,6 C 10,2 C 0,7 km/h
24.11.2017 19:00 10,5 C 82 % 1012,5 hPa 0,5 l/m 3,9 km/h S-SO 7,6 C 10,5 C 2,2 km/h
24.11.2017 20:00 9,9 C 82 % 1012,7 hPa 1,0 l/m 0,0 km/h S 7,0 C 9,9 C 0,0 km/h
24.11.2017 21:00 10,3 C 84 % 1012,3 hPa 0,0 l/m 0,6 km/h SW 7,7 C 10,3 C 0,4 km/h
24.11.2017 22:00 10,4 C 84 % 1011,6 hPa 0,0 l/m 2,6 km/h O-SO 7,8 C 10,4 C 1,4 km/h
24.11.2017 23:00 10,6 C 83 % 1010,7 hPa 0,0 l/m 0,0 km/h O-SO 7,8 C 10,6 C 0,0 km/h
25.11.2017 00:00 10,1 C 84 % 1009,6 hPa 0,0 l/m 0,0 km/h O 7,5 C 10,1 C 0,0 km/h
25.11.2017 01:00 9,5 C 84 % 1008,7 hPa 0,5 l/m 0,0 km/h S-SO 6,9 C 9,5 C 0,0 km/h
25.11.2017 02:00 9,9 C 82 % 1008,0 hPa 2,1 l/m 0,0 km/h SO 7,0 C 9,9 C 0,0 km/h
25.11.2017 03:00 9,9 C 81 % 1006,8 hPa 2,1 l/m 0,0 km/h N-NO 6,8 C 9,9 C 0,0 km/h
25.11.2017 04:00 8,8 C 82 % 1006,9 hPa 4,7 l/m 0,0 km/h O-SO 5,9 C 8,8 C 0,0 km/h
25.11.2017 05:00 7,5 C 81 % 1006,6 hPa 2,1 l/m 0,0 km/h W 4,5 C 7,5 C 0,0 km/h
25.11.2017 06:00 7,3 C 80 % 1007,0 hPa 3,1 l/m 0,0 km/h SO 4,1 C 7,3 C 0,0 km/h
25.11.2017 07:00 7,1 C 79 % 1007,5 hPa 3,1 l/m 0,0 km/h O-SO 3,7 C 7,1 C 0,0 km/h
25.11.2017 08:00 6,9 C 78 % 1008,4 hPa 1,0 l/m 0,0 km/h W 3,3 C 6,9 C 0,0 km/h
25.11.2017 09:00 6,6 C 77 % 1009,2 hPa 7,3 l/m 0,0 km/h S-SW 2,9 C 6,6 C 0,0 km/h
25.11.2017 10:00 5,8 C 76 % 1010,3 hPa 4,1 l/m 19,4 km/h SW 1,9 C -1,9 C 10,8 km/h
25.11.2017 11:00 5,6 C 77 % 1010,8 hPa 0,5 l/m 0,0 km/h SW 1,9 C 5,6 C 0,0 km/h
25.11.2017 12:00 6,4 C 84 % 1011,4 hPa 0,0 l/m 3,2 km/h S 3,9 C 6,4 C 1,8 km/h
25.11.2017 13:00 7,3 C 84 % 1011,3 hPa 0,0 l/m 15,6 km/h W 4,8 C 1,6 C 8,6 km/h
25.11.2017 14:00 8,6 C 80 % 1011,6 hPa 0,0 l/m 22,0 km/h SW 5,3 C 0,8 C 12,2 km/h
25.11.2017 15:00 7,1 C 81 % 1012,3 hPa 0,0 l/m 18,1 km/h W 4,1 C 0,3 C 10,1 km/h
25.11.2017 16:00 6,3 C 84 % 1012,8 hPa 0,0 l/m 0,0 km/h W 3,8 C 6,3 C 0,0 km/h
25.11.2017 17:00 5,7 C 85 % 1013,7 hPa 0,0 l/m 2,6 km/h W-NW 3,4 C 5,7 C 1,4 km/h
25.11.2017 18:00 5,2 C 85 % 1014,6 hPa 0,0 l/m 0,0 km/h W-NW 2,9 C 5,2 C 0,0 km/h
25.11.2017 19:00 5,1 C 85 % 1015,5 hPa 0,0 l/m 0,0 km/h SW 2,8 C 5,1 C 0,0 km/h
25.11.2017 20:00 4,2 C 85 % 1016,3 hPa 0,5 l/m 1,3 km/h W-NW 1,9 C 4,2 C 0,7 km/h
25.11.2017 21:00 3,6 C 85 % 1017,7 hPa 0,5 l/m 1,9 km/h O 1,3 C 3,6 C 1,1 km/h
25.11.2017 22:00 1,8 C 84 % 1018,9 hPa 2,6 l/m 0,0 km/h SO -0,6 C 1,8 C 0,0 km/h
25.11.2017 23:00 1,6 C 84 % 1019,9 hPa 0,0 l/m 0,0 km/h SO -0,8 C 1,6 C 0,0 km/h
26.11.2017 00:00 1,3 C 83 % 1020,2 hPa 0,0 l/m 0,0 km/h SO -1,3 C 1,3 C 0,0 km/h
26.11.2017 01:00 1,6 C 83 % 1020,7 hPa 0,0 l/m 0,0 km/h S-SO -1,0 C 1,6 C 0,0 km/h
26.11.2017 02:00 0,6 C 83 % 1021,1 hPa 0,0 l/m 0,0 km/h S-SO -1,9 C 0,6 C 0,0 km/h
26.11.2017 03:00 0,3 C 82 % 1021,4 hPa 0,0 l/m 0,0 km/h S-SO -2,4 C 0,3 C 0,0 km/h
26.11.2017 04:00 0,6 C 81 % 1021,7 hPa 0,0 l/m 0,0 km/h SW -2,3 C 0,6 C 0,0 km/h
26.11.2017 05:00 1,2 C 81 % 1021,6 hPa 0,0 l/m 0,0 km/h S -1,7 C 1,2 C 0,0 km/h
26.11.2017 06:00 1,6 C 82 % 1021,9 hPa 0,0 l/m 0,0 km/h S -1,1 C 1,6 C 0,0 km/h
26.11.2017 07:00 1,8 C 82 % 1021,9 hPa 0,0 l/m 0,0 km/h S-SW -0,9 C 1,8 C 0,0 km/h
26.11.2017 08:00 2,2 C 85 % 1022,4 hPa 0,5 l/m 7,1 km/h S-SW -0,1 C 1,5 C 4,0 km/h
26.11.2017 09:00 3,1 C 86 % 1022,9 hPa 0,0 l/m 0,0 km/h SW 1,0 C 3,1 C 0,0 km/h
26.11.2017 10:00 4,4 C 85 % 1023,0 hPa 0,0 l/m 22,7 km/h W-SW 2,1 C -5,0 C 12,6 km/h
26.11.2017 11:00 6,8 C 76 % 1023,0 hPa 0,0 l/m 22,0 km/h S-SW 2,9 C -1,6 C 12,2 km/h
26.11.2017 12:00 4,9 C 80 % 1023,2 hPa 0,0 l/m 22,0 km/h SW 1,7 C -4,1 C 12,2 km/h
26.11.2017 13:00 5,4 C 80 % 1022,8 hPa 0,0 l/m 16,2 km/h W 2,2 C -1,0 C 9,0 km/h
26.11.2017 14:00 4,4 C 81 % 1023,0 hPa 0,0 l/m 0,0 km/h W 1,4 C 4,4 C 0,0 km/h
26.11.2017 15:00 4,8 C 80 % 1023,3 hPa 0,5 l/m 0,0 km/h S-SW 1,6 C 4,8 C 0,0 km/h
26.11.2017 16:00 3,9 C 82 % 1024,0 hPa 0,5 l/m 20,1 km/h W-SW 1,1 C -4,6 C 11,2 km/h
26.11.2017 17:00 3,4 C 83 % 1024,5 hPa 0,0 l/m 8,4 km/h S-SW 0,8 C 1,6 C 4,7 km/h
26.11.2017 18:00 3,3 C 84 % 1024,9 hPa 0,0 l/m 24,0 km/h W-SW 0,9 C -6,9 C 13,3 km/h
26.11.2017 19:00 2,9 C 84 % 1025,3 hPa 0,0 l/m 13,6 km/h W 0,5 C -2,7 C 7,6 km/h
26.11.2017 20:00 3,1 C 84 % 1025,6 hPa 0,0 l/m 0,0 km/h W 0,7 C 3,1 C 0,0 km/h
26.11.2017 21:00 2,9 C 84 % 1025,5 hPa 0,0 l/m 0,0 km/h S-SW 0,5 C 2,9 C 0,0 km/h
26.11.2017 22:00 2,1 C 85 % 1025,7 hPa 0,0 l/m 18,1 km/h S-SW -0,2 C -6,0 C 10,1 km/h
26.11.2017 23:00 2,6 C 85 % 1025,6 hPa 0,0 l/m 12,3 km/h W 0,3 C -2,2 C 6,8 km/h
Min-Datum _ 20.11.17 22.11.17 25.11.17 - 20.11.17 - 20.11.17 26.11.17 20.11.17
_ Min-Zeit 02:53 15:53 05:53 - 00:53 - 02:53 18:53 00:53
Minimum _ -1,6 C 37 % 1006,6 hPa - 0,0 km/h - -3,8 C -6,9 C 0,0 km/h
Max-Datum _ 22.11.17 26.11.17 26.11.17 25.11.17 22.11.17 - 22.11.17 22.11.17 22.11.17
_ Max-Zeit 15:53 09:53 22:53 09:53 12:53 - 10:53 15:53 12:53
Maximum _ 22,6 C 86 % 1025,7 hPa 7,3 l/m 26,6 km/h
W-SW
- 12,0 C 22,6 C 14,8 km/h
W-SW
Durchschnitt _ 7,2 C 77 % 1014,6 hPa #45,6 l/m 3,6 km/h O-SO 3,3 C 6,1 C 2,0 km/h
www.sexauwetter.de